Terminal Aerodrome Forecast
Issued by NWS Raleigh/Durham, NC

Home | Current Version | Previous Version | Text Only | Print | Product List | Glossary On
Versions: 1 2 3 4 5 6 7 8 9 10 11 12 13 14 15 16 17 18 19 20 21 22 23 24 25 26 27 28 29 30 31 32 33 34 35 36
000
FTUS42 KRAH 312320
TAFGSO
TAF
KGSO 312320Z 0100/0124 00000KT P6SM VCSH SCT035 BKN100
      TEMPO 0100/0104 5SM -RA OVC025
     FM010400 00000KT 3SM RA BR BKN015 OVC030
     FM010800 VRB03KT 2SM RA BR OVC005
     FM011800 VRB05KT P6SM VCSH BKN012=

USA.gov is the U.S. government's official web portal to all federal, state and local government web resources and services.